Portada
METAR-TAF:

METAR-TAF

Aeroports :

Dimapur, Índia

latitud: 25-53-02N, longitud: 093-46-16E, altitud: 148 m

Observació

L'informe es va fer fa 13 hores i 55 minuts, a les 07:00 UTC
Vent 4 kt del Nord-Est
Temperatura 27°C
Humitat 66%
Pressió 1014 hPa
Visibilitat: 7000 m
Núvols disperses a una alçada de 2000 ft
Cel ennuvolat a una alçada de 10000 ft

METAR: VEMR 130700Z 05004KT 7000 SCT020 BKN100 27/20 Q1014

Hora: 02:25 (20:55 UTC)

Pronòstic

L'informe es va fer fa 3 hores i 55 minuts, a les 17:00 UTC
Pronòstic vàlid del 13 a les 18 UTC al 14 a les 03 UTC
Vent kt del Nord
Visibilitat: 2500 m
Núvols disperses a una alçada de 2000 ft
boirina
Evolucionant progressivament
l' 13 a les 22 UTC al 13 a les 24 UTC
Visibilitat: 1500 m
Escasses núvols a una alçada de 1000 ft
Núvols disperses a una alçada de 10000 ft
boirina

TAF: VEMR 131700Z 1318/1403 00000KT 2500 BR SCT020 BECMG 1322/1324 1500 BR FEW010 SCT100

Observacions i pronòstics meteorològics de més de 4000 aeroports (METAR i TAF).

Les estacions disponibles són els punts grocs i vermells al mapa.

Posi el ratolí al punt desitjat per veure el nom de l'estació.

Feu clic per veure les observacions i els pronòstics meteorològics.

Per canviar el mapa: feu clic els botons verds amb una creu de color negre per apropar; al botó verd amb un guió per allunyar la imatge; o en les fletxes verdes per a mapes adjacents.


METAR-TAF: